sensor_id;sensor_type;location;lat;lon;timestamp;pressure;altitude;pressure_sealevel;temperature;humidity
26487;BME280;14425;56.136;40.360;2023-08-17T00:00:11;57093.69;;;-145.77;100.00
26487;BME280;14425;56.136;40.360;2023-08-17T00:02:40;57093.69;;;-145.77;100.00
26487;BME280;14425;56.136;40.360;2023-08-17T00:05:06;57093.69;;;-145.77;100.00
26487;BME280;14425;56.136;40.360;2023-08-17T00:07:34;57093.69;;;-145.77;100.00
26487;BME280;14425;56.136;40.360;2023-08-17T00:10:00;57093.69;;;-145.77;100.00
26487;BME280;14425;56.136;40.360;2023-08-17T00:12:26;57093.69;;;-145.77;100.00
26487;BME280;14425;56.136;40.360;2023-08-17T00:14:52;57093.69;;;-145.77;100.00
26487;BME280;14425;56.136;40.360;2023-08-17T00:17:17;57093.69;;;-145.77;100.00
26487;BME280;14425;56.136;40.360;2023-08-17T00:19:43;57093.69;;;-145.77;100.00
26487;BME280;14425;56.136;40.360;2023-08-17T00:22:08;57093.69;;;-145.77;100.00
26487;BME280;14425;56.136;40.360;2023-08-17T00:24:34;57093.69;;;-145.77;100.00
26487;BME280;14425;56.136;40.360;2023-08-17T00:27:00;57093.69;;;-145.77;100.00
26487;BME280;14425;56.136;40.360;2023-08-17T00:29:25;57093.69;;;-145.77;100.00
26487;BME280;14425;56.136;40.360;2023-08-17T00:31:51;57093.69;;;-145.77;100.00
26487;BME280;14425;56.136;40.360;2023-08-17T00:34:18;57093.69;;;-145.77;100.00
26487;BME280;14425;56.136;40.360;2023-08-17T00:36:44;57093.69;;;-145.77;100.00
26487;BME280;14425;56.136;40.360;2023-08-17T00:39:09;57093.69;;;-145.77;100.00
26487;BME280;14425;56.136;40.360;2023-08-17T00:41:35;57093.69;;;-145.77;100.00
26487;BME280;14425;56.136;40.360;2023-08-17T00:44:00;57093.69;;;-145.77;100.00
26487;BME280;14425;56.136;40.360;2023-08-17T00:46:26;57093.69;;;-145.77;100.00
26487;BME280;14425;56.136;40.360;2023-08-17T00:48:54;57093.69;;;-145.77;100.00
26487;BME280;14425;56.136;40.360;2023-08-17T00:51:25;57093.69;;;-145.77;100.00
26487;BME280;14425;56.136;40.360;2023-08-17T00:53:51;57093.69;;;-145.77;100.00
26487;BME280;14425;56.136;40.360;2023-08-17T00:56:17;57093.69;;;-145.77;100.00
26487;BME280;14425;56.136;40.360;2023-08-17T00:58:43;57093.69;;;-145.77;100.00
26487;BME280;14425;56.136;40.360;2023-08-17T01:01:09;57093.69;;;-145.77;100.00
26487;BME280;14425;56.136;40.360;2023-08-17T01:03:34;57093.69;;;-145.77;100.00
26487;BME280;14425;56.136;40.360;2023-08-17T01:06:02;57093.69;;;-145.77;100.00
26487;BME280;14425;56.136;40.360;2023-08-17T01:08:29;57093.69;;;-145.77;100.00
26487;BME280;14425;56.136;40.360;2023-08-17T01:16:15;57093.69;;;-145.77;100.00
26487;BME280;14425;56.136;40.360;2023-08-17T01:18:42;57093.69;;;-145.77;100.00
26487;BME280;14425;56.136;40.360;2023-08-17T01:21:13;57093.69;;;-145.77;100.00
26487;BME280;14425;56.136;40.360;2023-08-17T01:23:44;57093.69;;;-145.77;100.00
26487;BME280;14425;56.136;40.360;2023-08-17T01:26:10;57093.69;;;-145.77;100.00
26487;BME280;14425;56.136;40.360;2023-08-17T01:28:36;57093.69;;;-145.77;100.00
26487;BME280;14425;56.136;40.360;2023-08-17T01:31:08;57093.69;;;-145.77;100.00
26487;BME280;14425;56.136;40.360;2023-08-17T01:33:54;57093.69;;;-145.77;100.00
26487;BME280;14425;56.136;40.360;2023-08-17T01:36:28;57093.69;;;-145.77;100.00
26487;BME280;14425;56.136;40.360;2023-08-17T01:38:56;57093.69;;;-145.77;100.00
26487;BME280;14425;56.136;40.360;2023-08-17T01:41:23;57093.69;;;-145.77;100.00
26487;BME280;14425;56.136;40.360;2023-08-17T01:43:49;57093.69;;;-145.77;100.00
26487;BME280;14425;56.136;40.360;2023-08-17T01:46:16;57093.69;;;-145.77;100.00
26487;BME280;14425;56.136;40.360;2023-08-17T01:48:42;57093.69;;;-145.77;100.00
26487;BME280;14425;56.136;40.360;2023-08-17T01:51:08;57093.69;;;-145.77;100.00
26487;BME280;14425;56.136;40.360;2023-08-17T01:53:33;57093.69;;;-145.77;100.00
26487;BME280;14425;56.136;40.360;2023-08-17T01:55:59;57093.69;;;-145.77;100.00
26487;BME280;14425;56.136;40.360;2023-08-17T01:58:25;57093.69;;;-145.77;100.00
26487;BME280;14425;56.136;40.360;2023-08-17T02:00:50;57093.69;;;-145.77;100.00
26487;BME280;14425;56.136;40.360;2023-08-17T02:03:16;57093.69;;;-145.77;100.00
26487;BME280;14425;56.136;40.360;2023-08-17T02:05:45;57093.69;;;-145.77;100.00
26487;BME280;14425;56.136;40.360;2023-08-17T02:08:11;57093.69;;;-145.77;100.00
26487;BME280;14425;56.136;40.360;2023-08-17T02:10:36;57093.69;;;-145.77;100.00
26487;BME280;14425;56.136;40.360;2023-08-17T02:13:02;57093.69;;;-145.77;100.00
26487;BME280;14425;56.136;40.360;2023-08-17T02:15:28;57093.69;;;-145.77;100.00
26487;BME280;14425;56.136;40.360;2023-08-17T02:17:54;57093.69;;;-145.77;100.00
26487;BME280;14425;56.136;40.360;2023-08-17T02:20:19;57093.69;;;-145.77;100.00
26487;BME280;14425;56.136;40.360;2023-08-17T02:22:45;57093.69;;;-145.77;100.00
26487;BME280;14425;56.136;40.360;2023-08-17T02:25:10;57093.69;;;-145.77;100.00
26487;BME280;14425;56.136;40.360;2023-08-17T02:27:36;57093.69;;;-145.77;100.00
26487;BME280;14425;56.136;40.360;2023-08-17T02:30:02;57093.69;;;-145.77;100.00
26487;BME280;14425;56.136;40.360;2023-08-17T02:32:30;57093.69;;;-145.77;100.00
26487;BME280;14425;56.136;40.360;2023-08-17T02:34:56;57093.69;;;-145.77;100.00
26487;BME280;14425;56.136;40.360;2023-08-17T02:37:21;57093.69;;;-145.77;100.00
26487;BME280;14425;56.136;40.360;2023-08-17T02:39:47;57093.69;;;-145.77;100.00
26487;BME280;14425;56.136;40.360;2023-08-17T02:42:12;57093.69;;;-145.77;100.00
26487;BME280;14425;56.136;40.360;2023-08-17T02:44:38;57093.69;;;-145.77;100.00
26487;BME280;14425;56.136;40.360;2023-08-17T02:47:03;57093.69;;;-145.77;100.00
26487;BME280;14425;56.136;40.360;2023-08-17T02:49:29;57093.69;;;-145.77;100.00
26487;BME280;14425;56.136;40.360;2023-08-17T02:51:54;57093.69;;;-145.77;100.00
26487;BME280;14425;56.136;40.360;2023-08-17T02:54:20;57093.69;;;-145.77;100.00
26487;BME280;14425;56.136;40.360;2023-08-17T02:56:45;57093.69;;;-145.77;100.00
26487;BME280;14425;56.136;40.360;2023-08-17T02:59:11;57093.69;;;-145.77;100.00
26487;BME280;14425;56.136;40.360;2023-08-17T03:01:36;57093.69;;;-145.77;100.00
26487;BME280;14425;56.136;40.360;2023-08-17T03:04:02;57093.69;;;-145.77;100.00
26487;BME280;14425;56.136;40.360;2023-08-17T03:06:28;57093.69;;;-145.77;100.00
26487;BME280;14425;56.136;40.360;2023-08-17T03:08:53;57093.69;;;-145.77;100.00
26487;BME280;14425;56.136;40.360;2023-08-17T03:11:20;57093.69;;;-145.77;100.00
26487;BME280;14425;56.136;40.360;2023-08-17T03:13:46;57093.69;;;-145.77;100.00
26487;BME280;14425;56.136;40.360;2023-08-17T03:16:14;57093.69;;;-145.77;100.00
26487;BME280;14425;56.136;40.360;2023-08-17T03:18:39;57093.69;;;-145.77;100.00
26487;BME280;14425;56.136;40.360;2023-08-17T03:21:05;57093.69;;;-145.77;100.00
26487;BME280;14425;56.136;40.360;2023-08-17T03:23:32;57093.69;;;-145.77;100.00
26487;BME280;14425;56.136;40.360;2023-08-17T03:25:58;57093.69;;;-145.77;100.00
26487;BME280;14425;56.136;40.360;2023-08-17T03:28:23;57093.69;;;-145.77;100.00
26487;BME280;14425;56.136;40.360;2023-08-17T03:30:50;57093.69;;;-145.77;100.00
26487;BME280;14425;56.136;40.360;2023-08-17T03:33:16;57093.69;;;-145.77;100.00
26487;BME280;14425;56.136;40.360;2023-08-17T03:35:41;57093.69;;;-145.77;100.00
26487;BME280;14425;56.136;40.360;2023-08-17T03:38:07;57093.69;;;-145.77;100.00
26487;BME280;14425;56.136;40.360;2023-08-17T03:40:32;57093.69;;;-145.77;100.00
26487;BME280;14425;56.136;40.360;2023-08-17T03:42:58;57093.69;;;-145.77;100.00
26487;BME280;14425;56.136;40.360;2023-08-17T03:45:23;57093.69;;;-145.77;100.00
26487;BME280;14425;56.136;40.360;2023-08-17T03:47:49;57093.69;;;-145.77;100.00
26487;BME280;14425;56.136;40.360;2023-08-17T03:50:14;57093.69;;;-145.77;100.00
26487;BME280;14425;56.136;40.360;2023-08-17T03:52:40;57093.69;;;-145.77;100.00
26487;BME280;14425;56.136;40.360;2023-08-17T03:55:06;57093.69;;;-145.77;100.00
26487;BME280;14425;56.136;40.360;2023-08-17T03:57:33;57093.69;;;-145.77;100.00
26487;BME280;14425;56.136;40.360;2023-08-17T03:59:58;57093.69;;;-145.77;100.00
26487;BME280;14425;56.136;40.360;2023-08-17T04:02:24;57093.69;;;-145.77;100.00
26487;BME280;14425;56.136;40.360;2023-08-17T04:04:49;57093.69;;;-145.77;100.00
26487;BME280;14425;56.136;40.360;2023-08-17T04:07:22;57093.69;;;-145.77;100.00
26487;BME280;14425;56.136;40.360;2023-08-17T04:09:47;57093.69;;;-145.77;100.00
26487;BME280;14425;56.136;40.360;2023-08-17T04:12:13;57093.69;;;-145.77;100.00
26487;BME280;14425;56.136;40.360;2023-08-17T04:14:39;57093.69;;;-145.77;100.00
26487;BME280;14425;56.136;40.360;2023-08-17T04:17:04;57093.69;;;-145.77;100.00
26487;BME280;14425;56.136;40.360;2023-08-17T04:19:30;57093.69;;;-145.77;100.00
26487;BME280;14425;56.136;40.360;2023-08-17T04:21:55;57093.69;;;-145.77;100.00
26487;BME280;14425;56.136;40.360;2023-08-17T04:24:21;57093.69;;;-145.77;100.00
26487;BME280;14425;56.136;40.360;2023-08-17T04:26:47;57093.69;;;-145.77;100.00
26487;BME280;14425;56.136;40.360;2023-08-17T04:29:12;57093.69;;;-145.77;100.00
26487;BME280;14425;56.136;40.360;2023-08-17T04:31:38;57093.69;;;-145.77;100.00
26487;BME280;14425;56.136;40.360;2023-08-17T04:34:04;57093.69;;;-145.77;100.00
26487;BME280;14425;56.136;40.360;2023-08-17T04:36:29;57093.69;;;-145.77;100.00
26487;BME280;14425;56.136;40.360;2023-08-17T04:38:55;57093.69;;;-145.77;100.00
26487;BME280;14425;56.136;40.360;2023-08-17T04:41:21;57093.69;;;-145.77;100.00
26487;BME280;14425;56.136;40.360;2023-08-17T04:43:47;57093.69;;;-145.77;100.00
26487;BME280;14425;56.136;40.360;2023-08-17T04:46:14;57093.69;;;-145.77;100.00
26487;BME280;14425;56.136;40.360;2023-08-17T04:48:40;57093.69;;;-145.77;100.00
26487;BME280;14425;56.136;40.360;2023-08-17T04:51:05;57093.69;;;-145.77;100.00
26487;BME280;14425;56.136;40.360;2023-08-17T04:53:31;57093.69;;;-145.77;100.00
26487;BME280;14425;56.136;40.360;2023-08-17T04:55:58;57093.69;;;-145.77;100.00
26487;BME280;14425;56.136;40.360;2023-08-17T04:58:24;57093.69;;;-145.77;100.00
26487;BME280;14425;56.136;40.360;2023-08-17T05:00:50;57093.69;;;-145.77;100.00
26487;BME280;14425;56.136;40.360;2023-08-17T05:03:16;57093.69;;;-145.77;100.00
26487;BME280;14425;56.136;40.360;2023-08-17T05:05:41;57093.69;;;-145.77;100.00
26487;BME280;14425;56.136;40.360;2023-08-17T05:08:07;57093.69;;;-145.77;100.00
26487;BME280;14425;56.136;40.360;2023-08-17T05:10:33;57093.69;;;-145.77;100.00
26487;BME280;14425;56.136;40.360;2023-08-17T05:12:58;57093.69;;;-145.77;100.00
26487;BME280;14425;56.136;40.360;2023-08-17T05:15:24;57093.69;;;-145.77;100.00
26487;BME280;14425;56.136;40.360;2023-08-17T05:17:49;57093.69;;;-145.77;100.00
26487;BME280;14425;56.136;40.360;2023-08-17T05:20:15;57093.69;;;-145.77;100.00
26487;BME280;14425;56.136;40.360;2023-08-17T05:22:41;57093.69;;;-145.77;100.00
26487;BME280;14425;56.136;40.360;2023-08-17T05:25:06;57093.69;;;-145.77;100.00
26487;BME280;14425;56.136;40.360;2023-08-17T05:27:32;57093.69;;;-145.77;100.00
26487;BME280;14425;56.136;40.360;2023-08-17T05:29:58;57093.69;;;-145.77;100.00
26487;BME280;14425;56.136;40.360;2023-08-17T05:32:23;57093.69;;;-145.77;100.00
26487;BME280;14425;56.136;40.360;2023-08-17T05:34:49;57093.69;;;-145.77;100.00
26487;BME280;14425;56.136;40.360;2023-08-17T05:37:14;57093.69;;;-145.77;100.00
26487;BME280;14425;56.136;40.360;2023-08-17T05:39:41;57093.69;;;-145.77;100.00
26487;BME280;14425;56.136;40.360;2023-08-17T05:42:07;57093.69;;;-145.77;100.00
26487;BME280;14425;56.136;40.360;2023-08-17T05:44:32;57093.69;;;-145.77;100.00
26487;BME280;14425;56.136;40.360;2023-08-17T05:46:58;57093.69;;;-145.77;100.00
26487;BME280;14425;56.136;40.360;2023-08-17T05:49:23;57093.69;;;-145.77;100.00
26487;BME280;14425;56.136;40.360;2023-08-17T05:51:49;57093.69;;;-145.77;100.00
26487;BME280;14425;56.136;40.360;2023-08-17T05:54:15;57093.69;;;-145.77;100.00
26487;BME280;14425;56.136;40.360;2023-08-17T05:56:40;57093.69;;;-145.77;100.00
26487;BME280;14425;56.136;40.360;2023-08-17T05:59:10;57093.69;;;-145.77;100.00
26487;BME280;14425;56.136;40.360;2023-08-17T06:01:36;57093.69;;;-145.77;100.00
26487;BME280;14425;56.136;40.360;2023-08-17T06:04:01;57093.69;;;-145.77;100.00
26487;BME280;14425;56.136;40.360;2023-08-17T06:06:27;57093.69;;;-145.77;100.00
26487;BME280;14425;56.136;40.360;2023-08-17T06:08:53;57093.69;;;-145.77;100.00
26487;BME280;14425;56.136;40.360;2023-08-17T06:11:18;57093.69;;;-145.77;100.00
26487;BME280;14425;56.136;40.360;2023-08-17T06:13:44;57093.69;;;-145.77;100.00
26487;BME280;14425;56.136;40.360;2023-08-17T06:16:10;57093.69;;;-145.77;100.00
26487;BME280;14425;56.136;40.360;2023-08-17T06:18:36;57093.69;;;-145.77;100.00
26487;BME280;14425;56.136;40.360;2023-08-17T06:21:01;57093.69;;;-145.77;100.00
26487;BME280;14425;56.136;40.360;2023-08-17T06:23:27;57093.69;;;-145.77;100.00
26487;BME280;14425;56.136;40.360;2023-08-17T06:25:56;57093.69;;;-145.77;100.00
26487;BME280;14425;56.136;40.360;2023-08-17T06:28:22;57093.69;;;-145.77;100.00
26487;BME280;14425;56.136;40.360;2023-08-17T06:30:52;57093.69;;;-145.77;100.00
26487;BME280;14425;56.136;40.360;2023-08-17T06:33:18;57093.69;;;-145.77;100.00
26487;BME280;14425;56.136;40.360;2023-08-17T06:35:44;57093.69;;;-145.77;100.00
26487;BME280;14425;56.136;40.360;2023-08-17T06:38:10;57093.69;;;-145.77;100.00
26487;BME280;14425;56.136;40.360;2023-08-17T06:40:35;57093.69;;;-145.77;100.00
26487;BME280;14425;56.136;40.360;2023-08-17T06:43:01;57093.69;;;-145.77;100.00
26487;BME280;14425;56.136;40.360;2023-08-17T06:45:27;57093.69;;;-145.77;100.00
26487;BME280;14425;56.136;40.360;2023-08-17T06:47:52;57093.69;;;-145.77;100.00
26487;BME280;14425;56.136;40.360;2023-08-17T06:50:18;57093.69;;;-145.77;100.00
26487;BME280;14425;56.136;40.360;2023-08-17T06:52:49;57093.69;;;-145.77;100.00
26487;BME280;14425;56.136;40.360;2023-08-17T06:55:15;57093.69;;;-145.77;100.00
26487;BME280;14425;56.136;40.360;2023-08-17T06:57:42;57093.69;;;-145.77;100.00
26487;BME280;14425;56.136;40.360;2023-08-17T07:00:08;57093.69;;;-145.77;100.00
26487;BME280;14425;56.136;40.360;2023-08-17T07:02:34;57093.69;;;-145.77;100.00
26487;BME280;14425;56.136;40.360;2023-08-17T07:05:00;57093.69;;;-145.77;100.00
26487;BME280;14425;56.136;40.360;2023-08-17T07:07:26;57093.69;;;-145.77;100.00
26487;BME280;14425;56.136;40.360;2023-08-17T07:09:51;57093.69;;;-145.77;100.00
26487;BME280;14425;56.136;40.360;2023-08-17T07:12:17;57093.69;;;-145.77;100.00
26487;BME280;14425;56.136;40.360;2023-08-17T07:14:44;57093.69;;;-145.77;100.00
26487;BME280;14425;56.136;40.360;2023-08-17T07:17:09;57093.69;;;-145.77;100.00
26487;BME280;14425;56.136;40.360;2023-08-17T07:19:35;57093.69;;;-145.77;100.00
26487;BME280;14425;56.136;40.360;2023-08-17T07:22:00;57093.69;;;-145.77;100.00
26487;BME280;14425;56.136;40.360;2023-08-17T07:24:26;57093.69;;;-145.77;100.00
26487;BME280;14425;56.136;40.360;2023-08-17T07:26:51;57093.69;;;-145.77;100.00
26487;BME280;14425;56.136;40.360;2023-08-17T07:29:17;57093.69;;;-145.77;100.00
26487;BME280;14425;56.136;40.360;2023-08-17T07:31:43;57093.69;;;-145.77;100.00
26487;BME280;14425;56.136;40.360;2023-08-17T07:34:09;57093.69;;;-145.77;100.00
26487;BME280;14425;56.136;40.360;2023-08-17T07:36:34;57093.69;;;-145.77;100.00
26487;BME280;14425;56.136;40.360;2023-08-17T07:39:00;57093.69;;;-145.77;100.00
26487;BME280;14425;56.136;40.360;2023-08-17T07:41:26;57093.69;;;-145.77;100.00
26487;BME280;14425;56.136;40.360;2023-08-17T07:43:52;57093.69;;;-145.77;100.00
26487;BME280;14425;56.136;40.360;2023-08-17T07:46:18;57093.69;;;-145.77;100.00
26487;BME280;14425;56.136;40.360;2023-08-17T07:48:43;57093.69;;;-145.77;100.00
26487;BME280;14425;56.136;40.360;2023-08-17T07:51:09;57093.69;;;-145.77;100.00
26487;BME280;14425;56.136;40.360;2023-08-17T07:53:34;57093.69;;;-145.77;100.00
26487;BME280;14425;56.136;40.360;2023-08-17T07:56:00;57093.69;;;-145.77;100.00
26487;BME280;14425;56.136;40.360;2023-08-17T07:58:25;57093.69;;;-145.77;100.00
26487;BME280;14425;56.136;40.360;2023-08-17T08:00:51;57093.69;;;-145.77;100.00
26487;BME280;14425;56.136;40.360;2023-08-17T08:03:16;57093.69;;;-145.77;100.00
26487;BME280;14425;56.136;40.360;2023-08-17T08:05:42;57093.69;;;-145.77;100.00
26487;BME280;14425;56.136;40.360;2023-08-17T08:08:08;57093.69;;;-145.77;100.00
26487;BME280;14425;56.136;40.360;2023-08-17T08:10:33;57093.69;;;-145.77;100.00
26487;BME280;14425;56.136;40.360;2023-08-17T08:12:59;57093.69;;;-145.77;100.00
26487;BME280;14425;56.136;40.360;2023-08-17T08:15:25;57093.69;;;-145.77;100.00
26487;BME280;14425;56.136;40.360;2023-08-17T08:17:50;57093.69;;;-145.77;100.00
26487;BME280;14425;56.136;40.360;2023-08-17T08:20:16;57093.69;;;-145.77;100.00
26487;BME280;14425;56.136;40.360;2023-08-17T08:22:41;57093.69;;;-145.77;100.00
26487;BME280;14425;56.136;40.360;2023-08-17T08:25:07;57093.69;;;-145.77;100.00
26487;BME280;14425;56.136;40.360;2023-08-17T08:27:33;57093.69;;;-145.77;100.00
26487;BME280;14425;56.136;40.360;2023-08-17T08:29:58;57093.69;;;-145.77;100.00
26487;BME280;14425;56.136;40.360;2023-08-17T08:32:24;57093.69;;;-145.77;100.00
26487;BME280;14425;56.136;40.360;2023-08-17T08:34:49;57093.69;;;-145.77;100.00
26487;BME280;14425;56.136;40.360;2023-08-17T08:37:15;57093.69;;;-145.77;100.00
26487;BME280;14425;56.136;40.360;2023-08-17T08:39:51;57093.69;;;-145.77;100.00
26487;BME280;14425;56.136;40.360;2023-08-17T08:42:18;57093.69;;;-145.77;100.00
26487;BME280;14425;56.136;40.360;2023-08-17T08:44:44;57093.69;;;-145.77;100.00
26487;BME280;14425;56.136;40.360;2023-08-17T08:47:11;57093.69;;;-145.77;100.00
26487;BME280;14425;56.136;40.360;2023-08-17T08:49:40;57093.69;;;-145.77;100.00
26487;BME280;14425;56.136;40.360;2023-08-17T08:52:12;57093.69;;;-145.77;100.00
26487;BME280;14425;56.136;40.360;2023-08-17T08:54:41;57093.69;;;-145.77;100.00
26487;BME280;14425;56.136;40.360;2023-08-17T08:57:12;57093.69;;;-145.77;100.00
26487;BME280;14425;56.136;40.360;2023-08-17T08:59:41;57093.69;;;-145.77;100.00
26487;BME280;14425;56.136;40.360;2023-08-17T09:02:14;57093.69;;;-145.77;100.00
26487;BME280;14425;56.136;40.360;2023-08-17T09:04:43;57093.69;;;-145.77;100.00
26487;BME280;14425;56.136;40.360;2023-08-17T09:07:12;57093.69;;;-145.77;100.00
26487;BME280;14425;56.136;40.360;2023-08-17T09:09:44;57093.69;;;-145.77;100.00
26487;BME280;14425;56.136;40.360;2023-08-17T09:12:10;57093.69;;;-145.77;100.00
26487;BME280;14425;56.136;40.360;2023-08-17T09:14:36;57093.69;;;-145.77;100.00
26487;BME280;14425;56.136;40.360;2023-08-17T09:17:04;57093.69;;;-145.77;100.00
26487;BME280;14425;56.136;40.360;2023-08-17T09:19:32;57093.69;;;-145.77;100.00
26487;BME280;14425;56.136;40.360;2023-08-17T09:21:59;57093.69;;;-145.77;100.00
26487;BME280;14425;56.136;40.360;2023-08-17T09:24:34;57093.69;;;-145.77;100.00
26487;BME280;14425;56.136;40.360;2023-08-17T09:27:00;57093.69;;;-145.77;100.00
26487;BME280;14425;56.136;40.360;2023-08-17T09:29:26;57093.69;;;-145.77;100.00
26487;BME280;14425;56.136;40.360;2023-08-17T09:31:52;57093.69;;;-145.77;100.00
26487;BME280;14425;56.136;40.360;2023-08-17T09:34:18;57093.69;;;-145.77;100.00
26487;BME280;14425;56.136;40.360;2023-08-17T09:36:47;57093.69;;;-145.77;100.00
26487;BME280;14425;56.136;40.360;2023-08-17T09:39:15;57093.69;;;-145.77;100.00
26487;BME280;14425;56.136;40.360;2023-08-17T09:41:41;57093.69;;;-145.77;100.00
26487;BME280;14425;56.136;40.360;2023-08-17T09:44:08;57093.69;;;-145.77;100.00
26487;BME280;14425;56.136;40.360;2023-08-17T09:46:34;57093.69;;;-145.77;100.00
26487;BME280;14425;56.136;40.360;2023-08-17T09:49:02;57093.69;;;-145.77;100.00
26487;BME280;14425;56.136;40.360;2023-08-17T09:51:30;57093.69;;;-145.77;100.00
26487;BME280;14425;56.136;40.360;2023-08-17T09:53:57;57093.69;;;-145.77;100.00
26487;BME280;14425;56.136;40.360;2023-08-17T09:56:23;57093.69;;;-145.77;100.00
26487;BME280;14425;56.136;40.360;2023-08-17T09:58:50;57093.69;;;-145.77;100.00
26487;BME280;14425;56.136;40.360;2023-08-17T10:01:16;57093.69;;;-145.77;100.00
26487;BME280;14425;56.136;40.360;2023-08-17T10:03:43;57093.69;;;-145.77;100.00
26487;BME280;14425;56.136;40.360;2023-08-17T10:06:18;57093.69;;;-145.77;100.00
26487;BME280;14425;56.136;40.360;2023-08-17T10:08:47;57093.69;;;-145.77;100.00
26487;BME280;14425;56.136;40.360;2023-08-17T10:11:19;57093.69;;;-145.77;100.00
26487;BME280;14425;56.136;40.360;2023-08-17T10:13:51;57093.69;;;-145.77;100.00
26487;BME280;14425;56.136;40.360;2023-08-17T10:16:23;57093.69;;;-145.77;100.00
26487;BME280;14425;56.136;40.360;2023-08-17T10:19:04;57093.69;;;-145.77;100.00
26487;BME280;14425;56.136;40.360;2023-08-17T10:21:40;57093.69;;;-145.77;100.00
26487;BME280;14425;56.136;40.360;2023-08-17T10:24:07;57093.69;;;-145.77;100.00
26487;BME280;14425;56.136;40.360;2023-08-17T10:26:33;57093.69;;;-145.77;100.00
26487;BME280;14425;56.136;40.360;2023-08-17T10:28:59;57093.69;;;-145.77;100.00
26487;BME280;14425;56.136;40.360;2023-08-17T10:31:29;57093.69;;;-145.77;100.00
26487;BME280;14425;56.136;40.360;2023-08-17T10:33:56;57093.69;;;-145.77;100.00
26487;BME280;14425;56.136;40.360;2023-08-17T10:36:22;57093.69;;;-145.77;100.00
26487;BME280;14425;56.136;40.360;2023-08-17T10:39:17;57093.69;;;-145.77;100.00
26487;BME280;14425;56.136;40.360;2023-08-17T10:41:47;57093.69;;;-145.77;100.00
26487;BME280;14425;56.136;40.360;2023-08-17T10:44:13;57093.69;;;-145.77;100.00
26487;BME280;14425;56.136;40.360;2023-08-17T10:46:40;57093.69;;;-145.77;100.00
26487;BME280;14425;56.136;40.360;2023-08-17T10:49:07;57093.69;;;-145.77;100.00
26487;BME280;14425;56.136;40.360;2023-08-17T10:52:04;57093.69;;;-145.77;100.00
26487;BME280;14425;56.136;40.360;2023-08-17T10:54:42;57093.69;;;-145.77;100.00
26487;BME280;14425;56.136;40.360;2023-08-17T10:57:28;57093.69;;;-145.77;100.00
26487;BME280;14425;56.136;40.360;2023-08-17T11:02:57;99123.00;;;20.55;100.00
26487;BME280;14425;56.136;40.360;2023-08-17T11:08:10;99123.00;;;20.55;100.00
26487;BME280;14425;56.136;40.360;2023-08-17T11:10:37;99123.00;;;20.55;100.00
26487;BME280;14425;56.136;40.360;2023-08-17T11:13:04;100190.47;;;34.12;37.51
26487;BME280;14425;56.136;40.360;2023-08-17T11:15:45;100195.56;;;33.30;38.58
26487;BME280;14425;56.136;40.360;2023-08-17T11:18:13;100197.00;;;33.73;37.50
26487;BME280;14425;56.136;40.360;2023-08-17T11:20:41;100194.69;;;32.93;37.19
26487;BME280;14425;56.136;40.360;2023-08-17T11:23:08;100196.16;;;31.83;40.96
26487;BME280;14425;56.136;40.360;2023-08-17T11:25:35;100191.38;;;31.28;41.41
26487;BME280;14425;56.136;40.360;2023-08-17T11:28:02;100202.38;;;30.28;43.65
26487;BME280;14425;56.136;40.360;2023-08-17T11:30:28;100185.50;;;30.52;42.09
26487;BME280;14425;56.136;40.360;2023-08-17T11:32:55;100184.50;;;31.65;41.62
26487;BME280;14425;56.136;40.360;2023-08-17T11:35:21;100187.28;;;32.62;40.61
26487;BME280;14425;56.136;40.360;2023-08-17T11:37:48;100181.19;;;33.33;39.22
26487;BME280;14425;56.136;40.360;2023-08-17T11:40:15;100186.75;;;32.35;40.56
26487;BME280;14425;56.136;40.360;2023-08-17T11:42:41;100185.34;;;32.66;39.07
26487;BME280;14425;56.136;40.360;2023-08-17T11:45:09;100183.59;;;32.27;40.38
26487;BME280;14425;56.136;40.360;2023-08-17T11:47:39;100178.63;;;32.76;39.26
26487;BME280;14425;56.136;40.360;2023-08-17T11:50:05;100185.53;;;32.61;38.36
26487;BME280;14425;56.136;40.360;2023-08-17T11:52:33;100181.31;;;32.76;39.51
26487;BME280;14425;56.136;40.360;2023-08-17T11:54:59;100165.84;;;33.19;39.26
26487;BME280;14425;56.136;40.360;2023-08-17T11:57:26;100177.63;;;33.50;38.23
26487;BME280;14425;56.136;40.360;2023-08-17T11:59:55;100171.47;;;32.76;39.23
26487;BME280;14425;56.136;40.360;2023-08-17T12:02:23;100167.34;;;33.25;39.11
26487;BME280;14425;56.136;40.360;2023-08-17T12:04:50;100171.25;;;33.87;38.36
26487;BME280;14425;56.136;40.360;2023-08-17T12:07:16;100158.78;;;34.04;37.95
26487;BME280;14425;56.136;40.360;2023-08-17T12:09:45;100161.50;;;33.86;38.38
26487;BME280;14425;56.136;40.360;2023-08-17T12:12:11;100166.00;;;33.51;39.54
26487;BME280;14425;56.136;40.360;2023-08-17T12:14:37;100160.25;;;33.76;38.54
26487;BME280;14425;56.136;40.360;2023-08-17T12:17:06;100163.47;;;32.57;39.80
26487;BME280;14425;56.136;40.360;2023-08-17T12:19:31;100159.88;;;32.77;40.86
26487;BME280;14425;56.136;40.360;2023-08-17T12:21:57;100159.88;;;32.77;40.86
26487;BME280;14425;56.136;40.360;2023-08-17T12:24:26;100161.53;;;33.69;38.18
26487;BME280;14425;56.136;40.360;2023-08-17T12:26:52;100144.81;;;33.99;37.50
26487;BME280;14425;56.136;40.360;2023-08-17T12:29:21;100142.00;;;33.84;36.30
26487;BME280;14425;56.136;40.360;2023-08-17T12:31:47;100153.72;;;33.82;36.97